createdAt,value
2022-09-05T00:03:03.951Z,101874.00
2022-09-05T00:06:06.959Z,101869.00
2022-09-05T00:08:55.056Z,101861.00
2022-09-05T00:11:41.125Z,101860.00
2022-09-05T00:15:16.972Z,101865.00
2022-09-05T00:23:15.485Z,101860.00
2022-09-05T00:24:20.363Z,101862.00
2022-09-05T00:24:26.774Z,101863.00
2022-09-05T00:27:02.500Z,101864.00
2022-09-05T00:31:07.075Z,101861.00
2022-09-05T00:33:27.755Z,101863.00
2022-09-05T00:36:18.878Z,101870.00
2022-09-05T00:39:00.370Z,101865.00
2022-09-05T00:41:34.260Z,101863.00
2022-09-05T00:44:06.502Z,101869.00
2022-09-05T00:46:45.122Z,101863.00
2022-09-05T00:49:23.248Z,101863.00
2022-09-05T00:52:03.513Z,101871.00
2022-09-05T00:55:03.621Z,101875.00
2022-09-05T00:58:20.192Z,101876.00
2022-09-05T01:00:56.411Z,101873.00
2022-09-05T01:03:58.495Z,101880.00
2022-09-05T01:06:49.140Z,101879.00
2022-09-05T01:09:39.670Z,101879.00
2022-09-05T01:12:22.956Z,101879.00
2022-09-05T01:15:17.656Z,101884.00
2022-09-05T01:18:05.230Z,101878.00
2022-09-05T01:20:58.071Z,101872.00
2022-09-05T01:23:54.660Z,101885.00
2022-09-05T01:26:53.797Z,101884.00
2022-09-05T01:29:37.703Z,101887.00
2022-09-05T01:32:27.816Z,101877.00
2022-09-05T01:35:25.902Z,101888.00
2022-09-05T01:38:06.927Z,101890.00
2022-09-05T01:40:51.573Z,101889.00
2022-09-05T01:44:20.921Z,101885.00
2022-09-05T01:47:09.693Z,101892.00
2022-09-05T01:50:00.726Z,101891.00
2022-09-05T01:53:02.616Z,101895.00
2022-09-05T01:56:02.500Z,101890.00
2022-09-05T01:58:57.488Z,101890.00
2022-09-05T02:01:36.451Z,101880.00
2022-09-05T02:04:38.526Z,101891.00
2022-09-05T02:07:30.099Z,101889.00
2022-09-05T02:10:39.635Z,101884.00
2022-09-05T02:13:24.039Z,101882.00
2022-09-05T02:16:03.370Z,101879.00
2022-09-05T02:18:55.202Z,101887.00
2022-09-05T02:21:56.451Z,101888.00
2022-09-05T02:24:37.593Z,101889.00
2022-09-05T02:27:48.972Z,101892.00
2022-09-05T02:30:19.877Z,101900.00
2022-09-05T02:33:11.753Z,101884.00
2022-09-05T02:35:51.569Z,101893.00
2022-09-05T02:41:30.633Z,101894.00
2022-09-05T02:45:06.150Z,101886.00
2022-09-05T02:45:17.869Z,101892.00
2022-09-05T02:47:34.624Z,101891.00
2022-09-05T02:52:50.553Z,101888.00
2022-09-05T02:57:26.057Z,101897.00
2022-09-05T02:57:32.897Z,101889.00
2022-09-05T02:59:41.867Z,101890.00
2022-09-05T03:02:26.034Z,101886.00
2022-09-05T03:05:05.801Z,101893.00
2022-09-05T03:08:25.610Z,101887.00
2022-09-05T03:11:46.841Z,101889.00
2022-09-05T03:15:18.467Z,101881.00
2022-09-05T03:18:25.256Z,101885.00
2022-09-05T03:21:31.512Z,101891.00
2022-09-05T03:24:48.149Z,101887.00
2022-09-05T03:28:17.503Z,101885.00
2022-09-05T03:31:22.541Z,101887.00
2022-09-05T03:34:41.590Z,101880.00
2022-09-05T03:38:04.926Z,101890.00
2022-09-05T03:41:09.293Z,101893.00
2022-09-05T03:44:25.985Z,101900.00
2022-09-05T03:48:04.998Z,101892.00
2022-09-05T03:55:41.139Z,101889.00
2022-09-05T03:57:16.803Z,101887.00
2022-09-05T03:57:42.395Z,101884.00
2022-09-05T04:00:23.707Z,101898.00
2022-09-05T04:08:11.226Z,101888.00
2022-09-05T04:08:19.743Z,101886.00
2022-09-05T04:09:12.495Z,101885.00
2022-09-05T04:11:48.179Z,101882.00
2022-09-05T04:14:27.195Z,101882.00
2022-09-05T04:17:08.507Z,101880.00
2022-09-05T04:19:50.152Z,101884.00
2022-09-05T04:22:28.264Z,101888.00
2022-09-05T04:25:07.621Z,101889.00
2022-09-05T04:27:51.417Z,101895.00
2022-09-05T04:30:42.647Z,101892.00
2022-09-05T04:33:36.232Z,101890.00
2022-09-05T04:36:23.038Z,101889.00
2022-09-05T04:39:28.204Z,101907.00
2022-09-05T04:42:18.097Z,101900.00
2022-09-05T04:44:55.970Z,101906.00
2022-09-05T04:47:31.777Z,101910.00
2022-09-05T04:50:12.169Z,101910.00
2022-09-05T04:53:13.783Z,101916.00
2022-09-05T04:55:50.401Z,101909.00
2022-09-05T04:58:56.146Z,101914.00
2022-09-05T05:06:04.287Z,101917.00
2022-09-05T05:06:09.090Z,101916.00
2022-09-05T05:07:23.953Z,101919.00
2022-09-05T05:10:33.293Z,101917.00
2022-09-05T05:18:07.943Z,101925.00
2022-09-05T05:18:11.986Z,101921.00
2022-09-05T05:19:07.137Z,101924.00
2022-09-05T05:21:53.317Z,101927.00
2022-09-05T05:24:31.449Z,101924.00
2022-09-05T05:27:10.312Z,101934.00
2022-09-05T05:29:52.400Z,101936.00
2022-09-05T05:32:44.846Z,101931.00
2022-09-05T05:35:21.995Z,101943.00
2022-09-05T05:37:58.075Z,101943.00
2022-09-05T05:40:39.642Z,101935.00
2022-09-05T05:43:25.987Z,101931.00
2022-09-05T05:46:02.015Z,101941.00
2022-09-05T05:48:39.551Z,101939.00
2022-09-05T05:51:44.105Z,101943.00
2022-09-05T05:54:29.941Z,101939.00
2022-09-05T05:57:57.157Z,101938.00
2022-09-05T06:00:51.450Z,101936.00
2022-09-05T06:04:03.256Z,101941.00
2022-09-05T06:06:57.509Z,101936.00
2022-09-05T06:14:55.184Z,101931.00
2022-09-05T06:15:01.053Z,101932.00
2022-09-05T06:17:07.735Z,101930.00
2022-09-05T06:21:41.207Z,101936.00
2022-09-05T06:23:49.922Z,101943.00
2022-09-05T06:26:45.907Z,101938.00
2022-09-05T06:29:38.326Z,101947.00
2022-09-05T06:32:28.389Z,101944.00
2022-09-05T06:35:31.728Z,101939.00
2022-09-05T06:38:24.424Z,101949.00
2022-09-05T06:41:05.911Z,101944.00
2022-09-05T06:44:03.407Z,101930.00
2022-09-05T06:47:23.040Z,101939.00
2022-09-05T06:49:43.985Z,101934.00
2022-09-05T06:52:51.206Z,101944.00
2022-09-05T06:55:50.419Z,101947.00
2022-09-05T06:59:11.274Z,101945.00
2022-09-05T07:02:00.150Z,101952.00
2022-09-05T07:05:36.906Z,101956.00
2022-09-05T07:07:43.742Z,101959.00
2022-09-05T07:10:38.373Z,101966.00
2022-09-05T07:13:18.457Z,101967.00
2022-09-05T07:15:59.072Z,101975.00
2022-09-05T07:18:44.929Z,101973.00
2022-09-05T07:21:26.657Z,101981.00
2022-09-05T07:24:08.546Z,101980.00
2022-09-05T07:26:52.331Z,101981.00
2022-09-05T07:29:29.874Z,101979.00
2022-09-05T07:32:05.833Z,101994.00
2022-09-05T07:34:40.617Z,101983.00
2022-09-05T07:37:16.284Z,101989.00
2022-09-05T07:39:52.931Z,101992.00
2022-09-05T07:42:29.263Z,101983.00
2022-09-05T07:45:08.644Z,101984.00
2022-09-05T07:47:43.376Z,101984.00
2022-09-05T07:51:54.785Z,101984.00
2022-09-05T07:56:58.769Z,101984.00
2022-09-05T07:57:13.132Z,101981.00
2022-09-05T07:58:55.648Z,101989.00
2022-09-05T08:01:27.915Z,101989.00
2022-09-05T08:04:02.487Z,101987.00
2022-09-05T08:07:48.227Z,101980.00
2022-09-05T08:10:05.941Z,101983.00
2022-09-05T08:12:28.686Z,101982.00
2022-09-05T08:15:10.394Z,101983.00
2022-09-05T08:17:59.513Z,101989.00
2022-09-05T08:20:39.305Z,101998.00
2022-09-05T08:23:36.345Z,101983.00
2022-09-05T08:26:12.945Z,101985.00
2022-09-05T08:28:57.014Z,101984.00
2022-09-05T08:31:42.009Z,101979.00
2022-09-05T08:34:18.657Z,101973.00
2022-09-05T08:37:05.437Z,101975.00
2022-09-05T08:39:38.746Z,101970.00
2022-09-05T08:42:25.021Z,101964.00
2022-09-05T08:46:39.830Z,101966.00
2022-09-05T08:48:24.915Z,101960.00
2022-09-05T08:51:18.776Z,101968.00
2022-09-05T08:54:18.986Z,101958.00
2022-09-05T08:57:01.471Z,101947.00
2022-09-05T09:00:19.602Z,101955.00
2022-09-05T09:03:04.893Z,101954.00
2022-09-05T09:06:24.144Z,101947.00
2022-09-05T09:09:32.994Z,101949.00
2022-09-05T09:12:18.940Z,101946.00
2022-09-05T09:14:59.520Z,101940.00
2022-09-05T09:17:45.398Z,101945.00
2022-09-05T09:20:29.942Z,101945.00
2022-09-05T09:23:06.370Z,101949.00
2022-09-05T09:25:42.857Z,101944.00
2022-09-05T09:28:51.754Z,101943.00
2022-09-05T09:31:55.647Z,101944.00
2022-09-05T09:34:51.223Z,101937.00
2022-09-05T09:38:10.192Z,101940.00
2022-09-05T09:41:16.144Z,101933.00
2022-09-05T09:44:55.581Z,101948.00
2022-09-05T09:47:46.595Z,101946.00
2022-09-05T09:50:29.565Z,101944.00
2022-09-05T09:53:24.918Z,101934.00
2022-09-05T09:56:32.945Z,101940.00
2022-09-05T09:59:23.038Z,101931.00
2022-09-05T10:03:18.487Z,101933.00
2022-09-05T10:10:36.225Z,101934.00
2022-09-05T10:10:52.401Z,101937.00
2022-09-05T10:11:55.662Z,101934.00
2022-09-05T10:15:30.744Z,101917.00
2022-09-05T10:18:31.566Z,101915.00
2022-09-05T10:21:39.016Z,101918.00
2022-09-05T10:24:40.905Z,101923.00
2022-09-05T10:27:32.809Z,101914.00
2022-09-05T10:30:15.403Z,101913.00
2022-09-05T10:35:11.052Z,101909.00
2022-09-05T10:36:28.926Z,101909.00
2022-09-05T10:39:21.322Z,101903.00
2022-09-05T10:42:01.333Z,101906.00
2022-09-05T10:44:41.815Z,101905.00
2022-09-05T10:47:27.033Z,101897.00
2022-09-05T10:50:09.051Z,101893.00
2022-09-05T10:52:57.725Z,101895.00
2022-09-05T10:55:36.721Z,101887.00
2022-09-05T10:58:39.060Z,101886.00
2022-09-05T11:02:26.038Z,101880.00
2022-09-05T11:04:46.891Z,101880.00
2022-09-05T11:07:27.821Z,101877.00
2022-09-05T11:10:17.460Z,101865.00
2022-09-05T11:13:17.630Z,101863.00
2022-09-05T11:16:13.369Z,101863.00
2022-09-05T11:19:05.177Z,101855.00
2022-09-05T11:22:02.189Z,101861.00
2022-09-05T11:24:52.261Z,101858.00
2022-09-05T11:27:35.226Z,101856.00
2022-09-05T11:30:09.876Z,101860.00
2022-09-05T11:39:53.547Z,101850.00
2022-09-05T11:39:54.949Z,101852.00
2022-09-05T11:40:45.134Z,101847.00
2022-09-05T11:44:25.236Z,101844.00
2022-09-05T11:47:28.460Z,101847.00
2022-09-05T11:50:38.243Z,101859.00
2022-09-05T11:53:57.245Z,101848.00
2022-09-05T11:57:33.753Z,101846.00
2022-09-05T12:00:31.440Z,101853.00
2022-09-05T12:03:59.704Z,101852.00
2022-09-05T12:07:16.010Z,101850.00
2022-09-05T12:10:45.913Z,101832.00
2022-09-05T12:13:45.601Z,101830.00
2022-09-05T12:16:47.904Z,101839.00
2022-09-05T12:19:29.852Z,101838.00
2022-09-05T12:22:33.761Z,101844.00
2022-09-05T12:27:39.021Z,101832.00
2022-09-05T12:29:27.199Z,101825.00
2022-09-05T12:32:37.698Z,101822.00
2022-09-05T12:36:04.363Z,101816.00
2022-09-05T12:41:32.640Z,101810.00
2022-09-05T12:41:34.650Z,101821.00
2022-09-05T12:43:42.524Z,101813.00
2022-09-05T12:46:07.738Z,101808.00
2022-09-05T12:48:47.659Z,101815.00
2022-09-05T12:51:46.065Z,101807.00
2022-09-05T12:54:33.401Z,101806.00
2022-09-05T13:02:05.230Z,101798.00
2022-09-05T13:03:01.948Z,101802.00
2022-09-05T13:03:28.193Z,101809.00
2022-09-05T13:06:09.638Z,101814.00
2022-09-05T13:09:00.822Z,101800.00
2022-09-05T13:14:50.100Z,101802.00
2022-09-05T13:14:55.288Z,101805.00
2022-09-05T13:17:44.487Z,101808.00
2022-09-05T13:20:30.510Z,101804.00
2022-09-05T13:23:01.261Z,101804.00
2022-09-05T13:25:33.084Z,101798.00
2022-09-05T13:28:08.872Z,101793.00
2022-09-05T13:36:43.437Z,101795.00
2022-09-05T13:38:11.856Z,101787.00
2022-09-05T13:38:11.969Z,101795.00
2022-09-05T13:39:55.219Z,101793.00
2022-09-05T13:42:28.629Z,101795.00
2022-09-05T13:45:02.529Z,101784.00
2022-09-05T13:48:13.352Z,101783.00
2022-09-05T13:50:55.112Z,101789.00
2022-09-05T13:53:36.764Z,101790.00
2022-09-05T13:56:24.103Z,101788.00
2022-09-05T13:59:02.240Z,101785.00
2022-09-05T14:02:26.897Z,101780.00
2022-09-05T14:05:21.117Z,101780.00
2022-09-05T14:08:33.806Z,101772.00
2022-09-05T14:11:41.206Z,101780.00
2022-09-05T14:17:54.974Z,101775.00
2022-09-05T14:20:43.339Z,101766.00
2022-09-05T14:23:16.349Z,101766.00
2022-09-05T14:25:54.152Z,101773.00
2022-09-05T14:28:30.855Z,101766.00
2022-09-05T14:32:51.783Z,101757.00
2022-09-05T14:37:49.607Z,101761.00
2022-09-05T14:38:04.425Z,101764.00
2022-09-05T14:41:23.369Z,101760.00
2022-09-05T14:44:20.184Z,101759.00
2022-09-05T14:47:38.102Z,101757.00
2022-09-05T14:50:59.686Z,101767.00
2022-09-05T14:57:23.260Z,101760.00
2022-09-05T15:02:44.407Z,101759.00
2022-09-05T15:02:48.153Z,101754.00
2022-09-05T15:05:35.689Z,101756.00
2022-09-05T15:08:16.283Z,101756.00
2022-09-05T15:12:17.315Z,101755.00
2022-09-05T15:14:03.897Z,101750.00
2022-09-05T15:16:43.875Z,101748.00
2022-09-05T15:20:05.530Z,101743.00
2022-09-05T15:22:43.209Z,101744.00
2022-09-05T15:25:21.932Z,101731.00
2022-09-05T15:27:52.984Z,101738.00
2022-09-05T15:30:35.651Z,101734.00
2022-09-05T15:33:25.471Z,101730.00
2022-09-05T15:35:56.840Z,101737.00
2022-09-05T15:38:33.550Z,101730.00
2022-09-05T15:41:25.020Z,101727.00
2022-09-05T15:44:01.580Z,101731.00
2022-09-05T15:46:49.414Z,101730.00
2022-09-05T15:49:37.042Z,101721.00
2022-09-05T15:52:14.324Z,101726.00
2022-09-05T15:54:51.956Z,101721.00
2022-09-05T15:57:26.743Z,101723.00
2022-09-05T16:00:00.179Z,101725.00
2022-09-05T16:02:34.744Z,101728.00
2022-09-05T16:10:31.483Z,101721.00
2022-09-05T16:10:39.232Z,101716.00
2022-09-05T16:12:07.430Z,101718.00
2022-09-05T16:14:26.269Z,101720.00
2022-09-05T16:23:20.341Z,101720.00
2022-09-05T16:23:29.141Z,101723.00
2022-09-05T16:23:34.734Z,101714.00
2022-09-05T16:25:50.996Z,101725.00
2022-09-05T16:28:24.334Z,101726.00
2022-09-05T16:31:03.069Z,101733.00
2022-09-05T16:33:38.997Z,101727.00
2022-09-05T16:36:16.573Z,101727.00
2022-09-05T16:38:55.727Z,101730.00
2022-09-05T16:41:44.080Z,101739.00
2022-09-05T16:44:23.367Z,101731.00
2022-09-05T16:47:11.336Z,101728.00
2022-09-05T16:54:21.927Z,101722.00
2022-09-05T16:56:58.548Z,101714.00
2022-09-05T16:59:33.013Z,101721.00
2022-09-05T17:02:09.702Z,101716.00
2022-09-05T17:05:05.806Z,101720.00
2022-09-05T17:08:04.799Z,101715.00
2022-09-05T17:10:57.257Z,101716.00
2022-09-05T17:13:43.083Z,101720.00
2022-09-05T17:16:21.832Z,101721.00
2022-09-05T17:18:59.512Z,101730.00
2022-09-05T17:22:49.736Z,101720.00
2022-09-05T17:29:16.454Z,101721.00
2022-09-05T17:29:26.024Z,101722.00
2022-09-05T17:33:05.063Z,101718.00
2022-09-05T17:35:42.784Z,101707.00
2022-09-05T17:38:56.302Z,101707.00
2022-09-05T17:41:50.989Z,101713.00
2022-09-05T17:44:31.760Z,101719.00
2022-09-05T17:47:14.686Z,101725.00
2022-09-05T17:49:48.392Z,101725.00
2022-09-05T17:52:24.905Z,101716.00
2022-09-05T17:54:57.654Z,101727.00
2022-09-05T17:57:45.370Z,101725.00
2022-09-05T18:01:05.611Z,101725.00
2022-09-05T18:04:08.327Z,101734.00
2022-09-05T18:06:59.251Z,101730.00
2022-09-05T18:10:14.909Z,101739.00
2022-09-05T18:13:13.767Z,101748.00
2022-09-05T18:16:13.643Z,101759.00
2022-09-05T18:19:32.091Z,101757.00
2022-09-05T18:21:55.059Z,101747.00
2022-09-05T18:24:35.286Z,101753.00
2022-09-05T18:28:03.814Z,101750.00
2022-09-05T18:30:13.893Z,101742.00
2022-09-05T18:32:53.357Z,101750.00
2022-09-05T18:35:37.761Z,101757.00
2022-09-05T18:38:51.850Z,101750.00
2022-09-05T18:41:21.598Z,101743.00
2022-09-05T18:44:12.111Z,101746.00
2022-09-05T18:46:49.281Z,101757.00
2022-09-05T18:50:22.377Z,101750.00
2022-09-05T18:52:23.486Z,101753.00
2022-09-05T18:56:10.320Z,101751.00
2022-09-05T18:57:58.004Z,101749.00
2022-09-05T19:00:44.673Z,101747.00
2022-09-05T19:03:25.134Z,101749.00
2022-09-05T19:06:34.679Z,101745.00
2022-09-05T19:08:59.396Z,101749.00
2022-09-05T19:11:38.304Z,101745.00
2022-09-05T19:14:47.352Z,101751.00
2022-09-05T19:17:27.746Z,101759.00
2022-09-05T19:20:32.247Z,101752.00
2022-09-05T19:23:11.542Z,101756.00
2022-09-05T19:25:46.814Z,101740.00
2022-09-05T19:36:46.968Z,101740.00
2022-09-05T19:36:57.054Z,101736.00
2022-09-05T19:37:08.704Z,101744.00
2022-09-05T19:37:29.529Z,101739.00
2022-09-05T19:46:06.828Z,101738.00
2022-09-05T19:47:35.381Z,101737.00
2022-09-05T19:47:35.725Z,101739.00
2022-09-05T19:48:36.378Z,101741.00
2022-09-05T19:51:16.783Z,101745.00
2022-09-05T19:54:03.860Z,101744.00
2022-09-05T19:56:39.861Z,101746.00
2022-09-05T19:59:22.440Z,101744.00
2022-09-05T20:01:56.593Z,101741.00
2022-09-05T20:04:27.808Z,101742.00
2022-09-05T20:06:58.363Z,101742.00
2022-09-05T20:09:30.259Z,101740.00
2022-09-05T20:12:03.668Z,101745.00
2022-09-05T20:14:37.526Z,101746.00
2022-09-05T20:17:29.765Z,101744.00
2022-09-05T20:20:11.197Z,101732.00
2022-09-05T20:22:49.709Z,101725.00
2022-09-05T20:25:35.139Z,101725.00
2022-09-05T20:28:10.992Z,101731.00
2022-09-05T20:30:45.172Z,101734.00
2022-09-05T20:33:24.448Z,101729.00
2022-09-05T20:43:08.463Z,101740.00
2022-09-05T20:43:29.407Z,101738.00
2022-09-05T20:43:33.016Z,101736.00
2022-09-05T20:44:50.987Z,101742.00
2022-09-05T20:54:05.052Z,101742.00
2022-09-05T20:54:08.194Z,101734.00
2022-09-05T20:54:21.144Z,101731.00
2022-09-05T20:56:23.956Z,101739.00
2022-09-05T20:58:58.711Z,101734.00
2022-09-05T21:01:32.816Z,101733.00
2022-09-05T21:04:05.557Z,101731.00
2022-09-05T21:06:41.569Z,101730.00
2022-09-05T21:09:24.403Z,101736.00
2022-09-05T21:11:56.373Z,101730.00
2022-09-05T21:14:30.253Z,101726.00
2022-09-05T21:17:04.884Z,101736.00
2022-09-05T21:19:53.173Z,101733.00
2022-09-05T21:22:43.433Z,101739.00
2022-09-05T21:25:42.201Z,101741.00
2022-09-05T21:28:32.621Z,101735.00
2022-09-05T21:31:15.758Z,101737.00
2022-09-05T21:33:48.086Z,101745.00
2022-09-05T21:36:28.662Z,101733.00
2022-09-05T21:39:02.032Z,101730.00
2022-09-05T21:41:32.591Z,101737.00
2022-09-05T21:47:40.313Z,101733.00
2022-09-05T21:47:48.363Z,101717.00
2022-09-05T21:49:49.583Z,101722.00
2022-09-05T21:52:20.621Z,101725.00
2022-09-05T21:59:16.154Z,101727.00
2022-09-05T21:59:20.899Z,101723.00
2022-09-05T22:00:38.711Z,101719.00
2022-09-05T22:03:18.193Z,101715.00
2022-09-05T22:05:50.329Z,101715.00
2022-09-05T22:08:23.102Z,101715.00
2022-09-05T22:10:55.903Z,101717.00
2022-09-05T22:13:28.367Z,101711.00
2022-09-05T22:16:01.571Z,101715.00
2022-09-05T22:18:32.983Z,101718.00
2022-09-05T22:21:32.818Z,101720.00
2022-09-05T22:24:01.561Z,101722.00
2022-09-05T22:27:01.248Z,101719.00
2022-09-05T22:29:31.319Z,101715.00
2022-09-05T22:32:01.656Z,101720.00
2022-09-05T22:34:31.913Z,101713.00
2022-09-05T22:37:02.195Z,101708.00
2022-09-05T22:39:37.097Z,101704.00
2022-09-05T22:42:11.181Z,101697.00
2022-09-05T22:44:42.718Z,101702.00
2022-09-05T22:47:14.368Z,101704.00
2022-09-05T22:49:44.668Z,101705.00
2022-09-05T22:52:15.290Z,101699.00
2022-09-05T22:54:45.779Z,101702.00
2022-09-05T22:57:18.598Z,101692.00
2022-09-05T22:59:48.848Z,101702.00
2022-09-05T23:02:19.234Z,101696.00
2022-09-05T23:04:49.644Z,101696.00
2022-09-05T23:07:20.946Z,101701.00
2022-09-05T23:09:51.386Z,101696.00
2022-09-05T23:12:24.403Z,101688.00
2022-09-05T23:14:54.883Z,101693.00
2022-09-05T23:17:25.174Z,101702.00
2022-09-05T23:19:55.573Z,101705.00
2022-09-05T23:22:26.025Z,101708.00
2022-09-05T23:24:56.648Z,101706.00
2022-09-05T23:27:30.204Z,101694.00
2022-09-05T23:30:00.669Z,101696.00
2022-09-05T23:32:31.097Z,101684.00
2022-09-05T23:35:01.910Z,101696.00
2022-09-05T23:37:32.547Z,101689.00
2022-09-05T23:40:03.092Z,101685.00
2022-09-05T23:42:36.246Z,101683.00
2022-09-05T23:45:07.304Z,101683.00
2022-09-05T23:47:38.811Z,101678.00
2022-09-05T23:50:12.079Z,101681.00
2022-09-05T23:52:43.428Z,101686.00
2022-09-05T23:55:16.143Z,101680.00
2022-09-05T23:57:49.834Z,101685.00
